sensor_id;sensor_type;location;lat;lon;timestamp;P1;durP1;ratioP1;P2;durP2;ratioP2
62149;SDS011;48134;53.586;10.610;2022-08-19T00:00:33;12.02;;;7.13;;
62149;SDS011;48134;53.586;10.610;2022-08-19T00:03:02;10.17;;;6.67;;
62149;SDS011;48134;53.586;10.610;2022-08-19T00:05:30;11.75;;;7.13;;
62149;SDS011;48134;53.586;10.610;2022-08-19T00:07:59;11.98;;;7.38;;
62149;SDS011;48134;53.586;10.610;2022-08-19T00:10:28;13.23;;;7.60;;
62149;SDS011;48134;53.586;10.610;2022-08-19T00:12:58;12.93;;;7.75;;
62149;SDS011;48134;53.586;10.610;2022-08-19T00:15:26;13.85;;;8.02;;
62149;SDS011;48134;53.586;10.610;2022-08-19T00:17:59;12.93;;;7.80;;
62149;SDS011;48134;53.586;10.610;2022-08-19T00:20:28;13.93;;;8.13;;
62149;SDS011;48134;53.586;10.610;2022-08-19T00:22:56;15.00;;;8.60;;
62149;SDS011;48134;53.586;10.610;2022-08-19T00:25:24;14.43;;;8.50;;
62149;SDS011;48134;53.586;10.610;2022-08-19T00:27:53;13.65;;;8.25;;
62149;SDS011;48134;53.586;10.610;2022-08-19T00:30:27;14.75;;;8.63;;
62149;SDS011;48134;53.586;10.610;2022-08-19T00:32:56;15.05;;;9.15;;
62149;SDS011;48134;53.586;10.610;2022-08-19T00:35:28;13.43;;;8.38;;
62149;SDS011;48134;53.586;10.610;2022-08-19T00:37:56;14.63;;;9.07;;
62149;SDS011;48134;53.586;10.610;2022-08-19T00:40:25;16.23;;;9.75;;
62149;SDS011;48134;53.586;10.610;2022-08-19T00:42:54;16.48;;;9.80;;
62149;SDS011;48134;53.586;10.610;2022-08-19T00:45:28;14.30;;;9.50;;
62149;SDS011;48134;53.586;10.610;2022-08-19T00:47:58;16.35;;;9.88;;
62149;SDS011;48134;53.586;10.610;2022-08-19T00:50:30;18.77;;;10.57;;
62149;SDS011;48134;53.586;10.610;2022-08-19T00:53:00;17.55;;;10.00;;
62149;SDS011;48134;53.586;10.610;2022-08-19T00:55:31;16.10;;;10.48;;
62149;SDS011;48134;53.586;10.610;2022-08-19T00:58:05;18.42;;;10.48;;
62149;SDS011;48134;53.586;10.610;2022-08-19T01:00:37;17.42;;;10.40;;
62149;SDS011;48134;53.586;10.610;2022-08-19T01:03:13;18.00;;;11.25;;
62149;SDS011;48134;53.586;10.610;2022-08-19T01:05:43;18.48;;;10.40;;
62149;SDS011;48134;53.586;10.610;2022-08-19T01:08:13;21.83;;;11.15;;
62149;SDS011;48134;53.586;10.610;2022-08-19T01:10:44;18.25;;;10.65;;
62149;SDS011;48134;53.586;10.610;2022-08-19T01:13:15;19.98;;;11.23;;
62149;SDS011;48134;53.586;10.610;2022-08-19T01:15:48;17.40;;;10.73;;
62149;SDS011;48134;53.586;10.610;2022-08-19T01:18:20;18.70;;;11.32;;
62149;SDS011;48134;53.586;10.610;2022-08-19T01:20:48;18.00;;;11.70;;
62149;SDS011;48134;53.586;10.610;2022-08-19T01:23:20;21.37;;;12.03;;
62149;SDS011;48134;53.586;10.610;2022-08-19T01:25:53;20.20;;;11.85;;
62149;SDS011;48134;53.586;10.610;2022-08-19T01:28:23;20.20;;;11.87;;
62149;SDS011;48134;53.586;10.610;2022-08-19T01:30:58;20.13;;;12.35;;
62149;SDS011;48134;53.586;10.610;2022-08-19T01:33:26;20.77;;;12.18;;
62149;SDS011;48134;53.586;10.610;2022-08-19T01:36:03;21.23;;;12.57;;
62149;SDS011;48134;53.586;10.610;2022-08-19T01:38:40;22.75;;;12.30;;
62149;SDS011;48134;53.586;10.610;2022-08-19T01:41:11;20.50;;;12.50;;
62149;SDS011;48134;53.586;10.610;2022-08-19T01:43:40;21.15;;;12.40;;
62149;SDS011;48134;53.586;10.610;2022-08-19T01:46:13;23.33;;;12.68;;
62149;SDS011;48134;53.586;10.610;2022-08-19T01:48:47;22.02;;;12.80;;
62149;SDS011;48134;53.586;10.610;2022-08-19T01:51:15;20.75;;;12.88;;
62149;SDS011;48134;53.586;10.610;2022-08-19T01:53:48;22.20;;;13.25;;
62149;SDS011;48134;53.586;10.610;2022-08-19T01:56:17;24.15;;;12.95;;
62149;SDS011;48134;53.586;10.610;2022-08-19T01:58:47;20.30;;;12.73;;
62149;SDS011;48134;53.586;10.610;2022-08-19T02:01:19;23.70;;;13.15;;
62149;SDS011;48134;53.586;10.610;2022-08-19T02:03:48;22.88;;;12.98;;
62149;SDS011;48134;53.586;10.610;2022-08-19T02:06:16;19.17;;;11.93;;
62149;SDS011;48134;53.586;10.610;2022-08-19T02:08:45;20.60;;;12.15;;
62149;SDS011;48134;53.586;10.610;2022-08-19T02:11:20;24.43;;;13.07;;
62149;SDS011;48134;53.586;10.610;2022-08-19T02:13:54;21.90;;;13.13;;
62149;SDS011;48134;53.586;10.610;2022-08-19T02:16:23;20.83;;;12.15;;
62149;SDS011;48134;53.586;10.610;2022-08-19T02:18:52;21.65;;;12.70;;
62149;SDS011;48134;53.586;10.610;2022-08-19T02:21:22;19.48;;;12.68;;
62149;SDS011;48134;53.586;10.610;2022-08-19T02:23:56;20.77;;;12.68;;
62149;SDS011;48134;53.586;10.610;2022-08-19T02:26:26;20.52;;;12.95;;
62149;SDS011;48134;53.586;10.610;2022-08-19T02:28:59;22.48;;;13.60;;
62149;SDS011;48134;53.586;10.610;2022-08-19T02:31:28;20.58;;;12.98;;
62149;SDS011;48134;53.586;10.610;2022-08-19T02:33:56;24.00;;;13.65;;
62149;SDS011;48134;53.586;10.610;2022-08-19T02:36:24;24.30;;;12.80;;
62149;SDS011;48134;53.586;10.610;2022-08-19T02:38:53;20.20;;;12.75;;
62149;SDS011;48134;53.586;10.610;2022-08-19T02:41:23;22.40;;;13.95;;
62149;SDS011;48134;53.586;10.610;2022-08-19T02:43:55;22.02;;;13.20;;
62149;SDS011;48134;53.586;10.610;2022-08-19T02:46:25;23.80;;;13.32;;
62149;SDS011;48134;53.586;10.610;2022-08-19T02:48:56;23.63;;;13.55;;
62149;SDS011;48134;53.586;10.610;2022-08-19T02:51:29;22.65;;;13.50;;
62149;SDS011;48134;53.586;10.610;2022-08-19T02:53:59;25.40;;;13.65;;
62149;SDS011;48134;53.586;10.610;2022-08-19T02:56:28;21.90;;;13.48;;
62149;SDS011;48134;53.586;10.610;2022-08-19T02:58:58;22.13;;;13.88;;
62149;SDS011;48134;53.586;10.610;2022-08-19T03:01:28;24.67;;;14.27;;
62149;SDS011;48134;53.586;10.610;2022-08-19T03:03:59;25.13;;;14.07;;
62149;SDS011;48134;53.586;10.610;2022-08-19T03:06:29;23.33;;;13.57;;
62149;SDS011;48134;53.586;10.610;2022-08-19T03:08:58;22.50;;;14.27;;
62149;SDS011;48134;53.586;10.610;2022-08-19T03:11:28;23.77;;;14.30;;
62149;SDS011;48134;53.586;10.610;2022-08-19T03:13:59;25.23;;;14.00;;
62149;SDS011;48134;53.586;10.610;2022-08-19T03:16:29;23.85;;;14.05;;
62149;SDS011;48134;53.586;10.610;2022-08-19T03:18:59;24.02;;;13.98;;
62149;SDS011;48134;53.586;10.610;2022-08-19T03:21:30;20.48;;;12.82;;
62149;SDS011;48134;53.586;10.610;2022-08-19T03:24:01;24.35;;;13.02;;
62149;SDS011;48134;53.586;10.610;2022-08-19T03:26:38;25.77;;;14.40;;
62149;SDS011;48134;53.586;10.610;2022-08-19T03:29:09;23.33;;;13.15;;
62149;SDS011;48134;53.586;10.610;2022-08-19T03:31:38;24.95;;;13.20;;
62149;SDS011;48134;53.586;10.610;2022-08-19T03:34:07;22.30;;;13.43;;
62149;SDS011;48134;53.586;10.610;2022-08-19T03:36:36;21.95;;;13.10;;
62149;SDS011;48134;53.586;10.610;2022-08-19T03:39:05;22.87;;;13.40;;
62149;SDS011;48134;53.586;10.610;2022-08-19T03:41:41;23.20;;;13.65;;
62149;SDS011;48134;53.586;10.610;2022-08-19T03:44:18;22.70;;;13.85;;
62149;SDS011;48134;53.586;10.610;2022-08-19T03:46:55;21.73;;;13.38;;
62149;SDS011;48134;53.586;10.610;2022-08-19T03:49:25;26.42;;;14.15;;
62149;SDS011;48134;53.586;10.610;2022-08-19T03:52:00;23.53;;;13.83;;
62149;SDS011;48134;53.586;10.610;2022-08-19T03:54:36;27.10;;;14.50;;
62149;SDS011;48134;53.586;10.610;2022-08-19T03:57:10;23.53;;;14.03;;
62149;SDS011;48134;53.586;10.610;2022-08-19T03:59:39;24.85;;;14.57;;
62149;SDS011;48134;53.586;10.610;2022-08-19T04:02:13;22.60;;;13.50;;
62149;SDS011;48134;53.586;10.610;2022-08-19T04:04:42;23.08;;;13.68;;
62149;SDS011;48134;53.586;10.610;2022-08-19T04:07:12;25.45;;;14.02;;
62149;SDS011;48134;53.586;10.610;2022-08-19T04:09:42;21.48;;;12.88;;
62149;SDS011;48134;53.586;10.610;2022-08-19T04:12:10;25.20;;;13.67;;
62149;SDS011;48134;53.586;10.610;2022-08-19T04:14:40;22.85;;;13.45;;
62149;SDS011;48134;53.586;10.610;2022-08-19T04:17:09;26.88;;;14.18;;
62149;SDS011;48134;53.586;10.610;2022-08-19T04:19:38;25.80;;;14.32;;
62149;SDS011;48134;53.586;10.610;2022-08-19T04:22:11;23.67;;;13.68;;
62149;SDS011;48134;53.586;10.610;2022-08-19T04:24:40;25.42;;;13.60;;
62149;SDS011;48134;53.586;10.610;2022-08-19T04:27:08;23.88;;;13.25;;
62149;SDS011;48134;53.586;10.610;2022-08-19T04:29:42;26.07;;;13.37;;
62149;SDS011;48134;53.586;10.610;2022-08-19T04:32:11;24.08;;;12.75;;
62149;SDS011;48134;53.586;10.610;2022-08-19T04:34:42;23.98;;;13.82;;
62149;SDS011;48134;53.586;10.610;2022-08-19T04:37:15;23.57;;;13.17;;
62149;SDS011;48134;53.586;10.610;2022-08-19T04:39:48;23.02;;;13.40;;
62149;SDS011;48134;53.586;10.610;2022-08-19T04:42:34;22.08;;;12.80;;
62149;SDS011;48134;53.586;10.610;2022-08-19T04:45:13;29.63;;;13.65;;
62149;SDS011;48134;53.586;10.610;2022-08-19T04:47:42;25.02;;;13.40;;
62149;SDS011;48134;53.586;10.610;2022-08-19T04:50:16;28.48;;;13.32;;
62149;SDS011;48134;53.586;10.610;2022-08-19T04:52:50;25.77;;;13.23;;
62149;SDS011;48134;53.586;10.610;2022-08-19T04:55:24;24.60;;;13.15;;
62149;SDS011;48134;53.586;10.610;2022-08-19T04:57:53;24.42;;;13.20;;
62149;SDS011;48134;53.586;10.610;2022-08-19T05:00:23;28.73;;;13.18;;
62149;SDS011;48134;53.586;10.610;2022-08-19T05:02:52;23.83;;;12.57;;
62149;SDS011;48134;53.586;10.610;2022-08-19T05:05:20;21.95;;;12.10;;
62149;SDS011;48134;53.586;10.610;2022-08-19T05:07:48;25.05;;;12.48;;
62149;SDS011;48134;53.586;10.610;2022-08-19T05:10:17;23.10;;;12.10;;
62149;SDS011;48134;53.586;10.610;2022-08-19T05:12:45;20.83;;;12.00;;
62149;SDS011;48134;53.586;10.610;2022-08-19T05:15:13;22.92;;;12.20;;
62149;SDS011;48134;53.586;10.610;2022-08-19T05:17:43;23.27;;;12.80;;
62149;SDS011;48134;53.586;10.610;2022-08-19T05:20:31;26.10;;;12.68;;
62149;SDS011;48134;53.586;10.610;2022-08-19T05:23:17;28.53;;;13.03;;
62149;SDS011;48134;53.586;10.610;2022-08-19T05:25:45;25.48;;;12.68;;
62149;SDS011;48134;53.586;10.610;2022-08-19T05:28:13;23.23;;;12.48;;
62149;SDS011;48134;53.586;10.610;2022-08-19T05:30:41;23.67;;;12.32;;
62149;SDS011;48134;53.586;10.610;2022-08-19T05:33:17;21.80;;;11.73;;
62149;SDS011;48134;53.586;10.610;2022-08-19T05:35:51;23.63;;;12.15;;
62149;SDS011;48134;53.586;10.610;2022-08-19T05:38:19;23.90;;;11.93;;
62149;SDS011;48134;53.586;10.610;2022-08-19T05:40:48;21.63;;;11.82;;
62149;SDS011;48134;53.586;10.610;2022-08-19T05:43:16;22.13;;;12.18;;
62149;SDS011;48134;53.586;10.610;2022-08-19T05:45:44;24.73;;;11.35;;
62149;SDS011;48134;53.586;10.610;2022-08-19T05:48:13;22.27;;;11.88;;
62149;SDS011;48134;53.586;10.610;2022-08-19T05:50:43;21.40;;;11.63;;
62149;SDS011;48134;53.586;10.610;2022-08-19T05:53:12;22.88;;;11.60;;
62149;SDS011;48134;53.586;10.610;2022-08-19T05:55:41;21.70;;;11.75;;
62149;SDS011;48134;53.586;10.610;2022-08-19T05:58:09;21.73;;;11.38;;
62149;SDS011;48134;53.586;10.610;2022-08-19T06:00:38;23.23;;;12.02;;
62149;SDS011;48134;53.586;10.610;2022-08-19T06:03:06;20.67;;;11.32;;
62149;SDS011;48134;53.586;10.610;2022-08-19T06:05:35;20.92;;;11.23;;
62149;SDS011;48134;53.586;10.610;2022-08-19T06:08:09;20.30;;;11.02;;
62149;SDS011;48134;53.586;10.610;2022-08-19T06:10:37;21.92;;;11.18;;
62149;SDS011;48134;53.586;10.610;2022-08-19T06:13:11;20.63;;;11.15;;
62149;SDS011;48134;53.586;10.610;2022-08-19T06:15:44;21.95;;;11.10;;
62149;SDS011;48134;53.586;10.610;2022-08-19T06:18:18;21.00;;;11.32;;
62149;SDS011;48134;53.586;10.610;2022-08-19T06:20:46;22.10;;;11.25;;
62149;SDS011;48134;53.586;10.610;2022-08-19T06:23:17;21.58;;;11.07;;
62149;SDS011;48134;53.586;10.610;2022-08-19T06:25:46;19.83;;;10.80;;
62149;SDS011;48134;53.586;10.610;2022-08-19T06:28:15;19.27;;;10.52;;
62149;SDS011;48134;53.586;10.610;2022-08-19T06:30:43;18.00;;;10.30;;
62149;SDS011;48134;53.586;10.610;2022-08-19T06:33:11;21.65;;;11.15;;
62149;SDS011;48134;53.586;10.610;2022-08-19T06:35:40;20.77;;;10.13;;
62149;SDS011;48134;53.586;10.610;2022-08-19T06:38:08;23.17;;;10.88;;
62149;SDS011;48134;53.586;10.610;2022-08-19T06:40:43;20.45;;;11.23;;
62149;SDS011;48134;53.586;10.610;2022-08-19T06:43:12;21.98;;;11.57;;
62149;SDS011;48134;53.586;10.610;2022-08-19T06:45:45;21.10;;;11.00;;
62149;SDS011;48134;53.586;10.610;2022-08-19T06:48:19;20.08;;;10.85;;
62149;SDS011;48134;53.586;10.610;2022-08-19T06:50:47;20.45;;;10.82;;
62149;SDS011;48134;53.586;10.610;2022-08-19T06:53:18;21.08;;;11.05;;
62149;SDS011;48134;53.586;10.610;2022-08-19T06:55:48;23.67;;;11.90;;
62149;SDS011;48134;53.586;10.610;2022-08-19T06:58:28;24.17;;;12.50;;
62149;SDS011;48134;53.586;10.610;2022-08-19T07:01:04;24.30;;;11.98;;
62149;SDS011;48134;53.586;10.610;2022-08-19T07:03:34;23.53;;;12.17;;
62149;SDS011;48134;53.586;10.610;2022-08-19T07:06:03;22.75;;;12.52;;
62149;SDS011;48134;53.586;10.610;2022-08-19T07:08:37;23.17;;;12.65;;
62149;SDS011;48134;53.586;10.610;2022-08-19T07:11:14;25.48;;;12.68;;
62149;SDS011;48134;53.586;10.610;2022-08-19T07:13:45;22.92;;;12.20;;
62149;SDS011;48134;53.586;10.610;2022-08-19T07:16:20;26.23;;;13.35;;
62149;SDS011;48134;53.586;10.610;2022-08-19T07:18:53;24.07;;;12.27;;
62149;SDS011;48134;53.586;10.610;2022-08-19T07:21:23;23.13;;;12.27;;
62149;SDS011;48134;53.586;10.610;2022-08-19T07:23:54;25.42;;;13.02;;
62149;SDS011;48134;53.586;10.610;2022-08-19T07:26:27;24.30;;;12.40;;
62149;SDS011;48134;53.586;10.610;2022-08-19T07:28:58;25.48;;;12.13;;
62149;SDS011;48134;53.586;10.610;2022-08-19T07:31:33;24.20;;;12.63;;
62149;SDS011;48134;53.586;10.610;2022-08-19T07:34:03;23.55;;;12.27;;
62149;SDS011;48134;53.586;10.610;2022-08-19T07:36:35;22.87;;;11.47;;
62149;SDS011;48134;53.586;10.610;2022-08-19T07:39:11;22.05;;;11.48;;
62149;SDS011;48134;53.586;10.610;2022-08-19T07:41:48;19.83;;;10.57;;
62149;SDS011;48134;53.586;10.610;2022-08-19T07:44:22;18.67;;;10.93;;
62149;SDS011;48134;53.586;10.610;2022-08-19T07:46:52;23.30;;;11.55;;
62149;SDS011;48134;53.586;10.610;2022-08-19T07:49:22;21.13;;;10.88;;
62149;SDS011;48134;53.586;10.610;2022-08-19T07:51:51;22.58;;;11.70;;
62149;SDS011;48134;53.586;10.610;2022-08-19T07:54:27;22.98;;;11.38;;
62149;SDS011;48134;53.586;10.610;2022-08-19T07:57:03;19.90;;;10.80;;
62149;SDS011;48134;53.586;10.610;2022-08-19T07:59:37;22.83;;;11.25;;
62149;SDS011;48134;53.586;10.610;2022-08-19T08:02:11;24.13;;;11.75;;
62149;SDS011;48134;53.586;10.610;2022-08-19T08:04:39;21.50;;;10.95;;
62149;SDS011;48134;53.586;10.610;2022-08-19T08:07:29;21.40;;;11.70;;
62149;SDS011;48134;53.586;10.610;2022-08-19T08:10:15;23.85;;;11.50;;
62149;SDS011;48134;53.586;10.610;2022-08-19T08:12:45;20.73;;;11.17;;
62149;SDS011;48134;53.586;10.610;2022-08-19T08:15:18;20.55;;;11.30;;
62149;SDS011;48134;53.586;10.610;2022-08-19T08:17:46;20.77;;;11.80;;
62149;SDS011;48134;53.586;10.610;2022-08-19T08:20:15;21.43;;;11.10;;
62149;SDS011;48134;53.586;10.610;2022-08-19T08:22:49;19.95;;;11.45;;
62149;SDS011;48134;53.586;10.610;2022-08-19T08:25:35;22.02;;;12.05;;
62149;SDS011;48134;53.586;10.610;2022-08-19T08:28:10;21.92;;;11.82;;
62149;SDS011;48134;53.586;10.610;2022-08-19T08:30:39;20.42;;;10.93;;
62149;SDS011;48134;53.586;10.610;2022-08-19T08:33:13;22.75;;;12.15;;
62149;SDS011;48134;53.586;10.610;2022-08-19T08:35:44;21.27;;;11.85;;
62149;SDS011;48134;53.586;10.610;2022-08-19T08:38:18;24.67;;;12.10;;
62149;SDS011;48134;53.586;10.610;2022-08-19T08:40:52;23.55;;;12.15;;
62149;SDS011;48134;53.586;10.610;2022-08-19T08:43:40;23.90;;;12.77;;
62149;SDS011;48134;53.586;10.610;2022-08-19T08:46:15;24.65;;;12.93;;
62149;SDS011;48134;53.586;10.610;2022-08-19T08:48:49;22.90;;;12.05;;
62149;SDS011;48134;53.586;10.610;2022-08-19T08:51:22;23.50;;;12.25;;
62149;SDS011;48134;53.586;10.610;2022-08-19T08:53:53;25.75;;;12.65;;
62149;SDS011;48134;53.586;10.610;2022-08-19T08:56:23;26.80;;;13.30;;
62149;SDS011;48134;53.586;10.610;2022-08-19T08:58:54;27.33;;;13.20;;
62149;SDS011;48134;53.586;10.610;2022-08-19T09:01:26;24.60;;;13.32;;
62149;SDS011;48134;53.586;10.610;2022-08-19T09:03:59;24.03;;;12.13;;
62149;SDS011;48134;53.586;10.610;2022-08-19T09:06:37;25.45;;;12.55;;
62149;SDS011;48134;53.586;10.610;2022-08-19T09:09:13;26.77;;;13.38;;
62149;SDS011;48134;53.586;10.610;2022-08-19T09:11:47;25.58;;;12.90;;
62149;SDS011;48134;53.586;10.610;2022-08-19T09:14:34;27.88;;;13.65;;
62149;SDS011;48134;53.586;10.610;2022-08-19T09:17:13;26.10;;;13.82;;
62149;SDS011;48134;53.586;10.610;2022-08-19T09:19:49;28.25;;;13.40;;
62149;SDS011;48134;53.586;10.610;2022-08-19T09:22:25;28.00;;;13.40;;
62149;SDS011;48134;53.586;10.610;2022-08-19T09:24:53;27.20;;;13.38;;
62149;SDS011;48134;53.586;10.610;2022-08-19T09:27:27;24.80;;;13.23;;
62149;SDS011;48134;53.586;10.610;2022-08-19T09:29:58;24.13;;;13.18;;
62149;SDS011;48134;53.586;10.610;2022-08-19T09:32:26;26.83;;;13.63;;
62149;SDS011;48134;53.586;10.610;2022-08-19T09:34:59;25.38;;;13.32;;
62149;SDS011;48134;53.586;10.610;2022-08-19T09:37:33;25.27;;;13.20;;
62149;SDS011;48134;53.586;10.610;2022-08-19T09:40:02;23.90;;;13.13;;
62149;SDS011;48134;53.586;10.610;2022-08-19T09:42:36;27.00;;;13.30;;
62149;SDS011;48134;53.586;10.610;2022-08-19T09:45:06;24.95;;;13.25;;
62149;SDS011;48134;53.586;10.610;2022-08-19T09:47:35;26.70;;;13.57;;
62149;SDS011;48134;53.586;10.610;2022-08-19T09:50:11;24.00;;;12.90;;
62149;SDS011;48134;53.586;10.610;2022-08-19T09:52:40;24.75;;;12.45;;
62149;SDS011;48134;53.586;10.610;2022-08-19T09:55:10;25.90;;;12.95;;
62149;SDS011;48134;53.586;10.610;2022-08-19T09:57:44;26.15;;;13.38;;
62149;SDS011;48134;53.586;10.610;2022-08-19T10:00:14;24.20;;;13.20;;
62149;SDS011;48134;53.586;10.610;2022-08-19T10:02:47;23.02;;;12.90;;
62149;SDS011;48134;53.586;10.610;2022-08-19T10:05:20;26.70;;;13.60;;
62149;SDS011;48134;53.586;10.610;2022-08-19T10:08:11;24.98;;;12.52;;
62149;SDS011;48134;53.586;10.610;2022-08-19T10:10:39;24.83;;;12.82;;
62149;SDS011;48134;53.586;10.610;2022-08-19T10:13:09;27.20;;;13.10;;
62149;SDS011;48134;53.586;10.610;2022-08-19T10:15:39;26.35;;;13.18;;
62149;SDS011;48134;53.586;10.610;2022-08-19T10:18:08;23.80;;;12.68;;
62149;SDS011;48134;53.586;10.610;2022-08-19T10:20:37;26.15;;;12.35;;
62149;SDS011;48134;53.586;10.610;2022-08-19T10:23:05;24.98;;;11.93;;
62149;SDS011;48134;53.586;10.610;2022-08-19T10:25:33;24.27;;;12.27;;
62149;SDS011;48134;53.586;10.610;2022-08-19T10:28:02;24.95;;;12.48;;
62149;SDS011;48134;53.586;10.610;2022-08-19T10:30:36;22.73;;;11.57;;
62149;SDS011;48134;53.586;10.610;2022-08-19T10:33:10;22.45;;;11.13;;
62149;SDS011;48134;53.586;10.610;2022-08-19T10:35:44;20.77;;;12.02;;
62149;SDS011;48134;53.586;10.610;2022-08-19T10:38:13;22.27;;;11.02;;
62149;SDS011;48134;53.586;10.610;2022-08-19T10:40:41;23.17;;;11.70;;
62149;SDS011;48134;53.586;10.610;2022-08-19T10:43:14;21.38;;;11.73;;
62149;SDS011;48134;53.586;10.610;2022-08-19T10:45:43;22.45;;;11.63;;
62149;SDS011;48134;53.586;10.610;2022-08-19T10:48:17;23.60;;;12.80;;
62149;SDS011;48134;53.586;10.610;2022-08-19T10:50:45;22.45;;;12.18;;
62149;SDS011;48134;53.586;10.610;2022-08-19T10:53:31;23.17;;;11.60;;
62149;SDS011;48134;53.586;10.610;2022-08-19T10:55:59;27.27;;;11.73;;
62149;SDS011;48134;53.586;10.610;2022-08-19T10:58:50;22.85;;;11.88;;
62149;SDS011;48134;53.586;10.610;2022-08-19T11:01:23;23.55;;;12.23;;
62149;SDS011;48134;53.586;10.610;2022-08-19T11:03:57;21.38;;;11.23;;
62149;SDS011;48134;53.586;10.610;2022-08-19T11:06:30;21.58;;;11.40;;
62149;SDS011;48134;53.586;10.610;2022-08-19T11:09:04;19.77;;;11.63;;
62149;SDS011;48134;53.586;10.610;2022-08-19T11:11:38;22.70;;;11.88;;
62149;SDS011;48134;53.586;10.610;2022-08-19T11:14:15;23.30;;;12.17;;
62149;SDS011;48134;53.586;10.610;2022-08-19T11:16:52;22.38;;;12.00;;
62149;SDS011;48134;53.586;10.610;2022-08-19T11:19:28;21.73;;;12.00;;
62149;SDS011;48134;53.586;10.610;2022-08-19T11:21:57;23.55;;;12.40;;
62149;SDS011;48134;53.586;10.610;2022-08-19T11:24:34;25.00;;;13.05;;
62149;SDS011;48134;53.586;10.610;2022-08-19T11:27:08;25.23;;;13.50;;
62149;SDS011;48134;53.586;10.610;2022-08-19T11:29:37;26.05;;;13.73;;
62149;SDS011;48134;53.586;10.610;2022-08-19T11:32:07;27.20;;;14.10;;
62149;SDS011;48134;53.586;10.610;2022-08-19T11:34:43;28.42;;;14.60;;
62149;SDS011;48134;53.586;10.610;2022-08-19T11:37:11;30.38;;;15.40;;
62149;SDS011;48134;53.586;10.610;2022-08-19T11:39:39;32.38;;;15.52;;
62149;SDS011;48134;53.586;10.610;2022-08-19T11:42:07;28.65;;;14.68;;
62149;SDS011;48134;53.586;10.610;2022-08-19T11:44:54;30.27;;;15.13;;
62149;SDS011;48134;53.586;10.610;2022-08-19T11:47:23;31.93;;;15.70;;
62149;SDS011;48134;53.586;10.610;2022-08-19T11:49:53;29.80;;;15.70;;
62149;SDS011;48134;53.586;10.610;2022-08-19T11:52:21;33.40;;;15.50;;
62149;SDS011;48134;53.586;10.610;2022-08-19T11:54:49;32.95;;;16.30;;
62149;SDS011;48134;53.586;10.610;2022-08-19T11:57:22;33.65;;;15.50;;
62149;SDS011;48134;53.586;10.610;2022-08-19T11:59:55;30.67;;;15.43;;
62149;SDS011;48134;53.586;10.610;2022-08-19T12:02:24;29.90;;;15.63;;
62149;SDS011;48134;53.586;10.610;2022-08-19T12:04:53;26.10;;;14.80;;
62149;SDS011;48134;53.586;10.610;2022-08-19T12:07:27;25.80;;;14.43;;
62149;SDS011;48134;53.586;10.610;2022-08-19T12:09:55;31.07;;;15.27;;
62149;SDS011;48134;53.586;10.610;2022-08-19T12:12:29;25.95;;;15.02;;
62149;SDS011;48134;53.586;10.610;2022-08-19T12:15:02;28.92;;;15.20;;
62149;SDS011;48134;53.586;10.610;2022-08-19T12:17:35;29.38;;;15.07;;
62149;SDS011;48134;53.586;10.610;2022-08-19T12:20:11;27.33;;;14.77;;
62149;SDS011;48134;53.586;10.610;2022-08-19T12:22:47;28.05;;;14.75;;
62149;SDS011;48134;53.586;10.610;2022-08-19T12:25:15;25.75;;;14.50;;
62149;SDS011;48134;53.586;10.610;2022-08-19T12:27:49;26.08;;;14.05;;
62149;SDS011;48134;53.586;10.610;2022-08-19T12:30:23;25.40;;;14.48;;
62149;SDS011;48134;53.586;10.610;2022-08-19T12:32:56;23.97;;;13.93;;
62149;SDS011;48134;53.586;10.610;2022-08-19T12:35:26;23.45;;;14.10;;
62149;SDS011;48134;53.586;10.610;2022-08-19T12:37:55;26.85;;;13.75;;
62149;SDS011;48134;53.586;10.610;2022-08-19T12:40:23;23.03;;;14.33;;
62149;SDS011;48134;53.586;10.610;2022-08-19T12:42:51;23.50;;;13.50;;
62149;SDS011;48134;53.586;10.610;2022-08-19T12:45:19;21.70;;;13.73;;
62149;SDS011;48134;53.586;10.610;2022-08-19T12:47:53;21.73;;;13.82;;
62149;SDS011;48134;53.586;10.610;2022-08-19T12:50:27;22.35;;;14.25;;
62149;SDS011;48134;53.586;10.610;2022-08-19T12:52:57;21.38;;;12.98;;
62149;SDS011;48134;53.586;10.610;2022-08-19T12:55:30;24.00;;;14.07;;
62149;SDS011;48134;53.586;10.610;2022-08-19T12:57:59;25.58;;;14.30;;
62149;SDS011;48134;53.586;10.610;2022-08-19T13:00:33;20.10;;;13.27;;
62149;SDS011;48134;53.586;10.610;2022-08-19T13:03:01;23.58;;;13.82;;
62149;SDS011;48134;53.586;10.610;2022-08-19T13:05:36;19.77;;;13.07;;
62149;SDS011;48134;53.586;10.610;2022-08-19T13:08:09;23.15;;;13.43;;
62149;SDS011;48134;53.586;10.610;2022-08-19T13:10:43;21.27;;;13.05;;
62149;SDS011;48134;53.586;10.610;2022-08-19T13:13:11;21.45;;;13.32;;
62149;SDS011;48134;53.586;10.610;2022-08-19T13:15:40;23.33;;;13.35;;
62149;SDS011;48134;53.586;10.610;2022-08-19T13:18:14;20.45;;;12.85;;
62149;SDS011;48134;53.586;10.610;2022-08-19T13:20:44;20.67;;;13.32;;
62149;SDS011;48134;53.586;10.610;2022-08-19T13:23:17;21.75;;;13.00;;
62149;SDS011;48134;53.586;10.610;2022-08-19T13:25:53;23.40;;;14.15;;
62149;SDS011;48134;53.586;10.610;2022-08-19T13:28:23;20.83;;;12.60;;
62149;SDS011;48134;53.586;10.610;2022-08-19T13:30:52;23.55;;;15.35;;
62149;SDS011;48134;53.586;10.610;2022-08-19T13:33:37;23.90;;;13.68;;
62149;SDS011;48134;53.586;10.610;2022-08-19T13:36:12;21.90;;;13.38;;
62149;SDS011;48134;53.586;10.610;2022-08-19T13:38:40;21.92;;;13.75;;
62149;SDS011;48134;53.586;10.610;2022-08-19T13:41:13;23.10;;;14.27;;
62149;SDS011;48134;53.586;10.610;2022-08-19T13:43:46;26.77;;;14.45;;
62149;SDS011;48134;53.586;10.610;2022-08-19T13:46:15;22.10;;;13.00;;
62149;SDS011;48134;53.586;10.610;2022-08-19T13:48:49;22.88;;;13.75;;
62149;SDS011;48134;53.586;10.610;2022-08-19T13:51:23;21.88;;;13.05;;
62149;SDS011;48134;53.586;10.610;2022-08-19T13:53:56;21.67;;;13.02;;
62149;SDS011;48134;53.586;10.610;2022-08-19T13:56:24;20.90;;;13.17;;
62149;SDS011;48134;53.586;10.610;2022-08-19T13:58:53;20.20;;;12.00;;
62149;SDS011;48134;53.586;10.610;2022-08-19T14:01:26;19.58;;;12.70;;
62149;SDS011;48134;53.586;10.610;2022-08-19T14:03:54;19.42;;;12.35;;
62149;SDS011;48134;53.586;10.610;2022-08-19T14:06:29;19.30;;;12.05;;
62149;SDS011;48134;53.586;10.610;2022-08-19T14:09:02;20.67;;;12.50;;
62149;SDS011;48134;53.586;10.610;2022-08-19T14:11:36;20.20;;;12.48;;
62149;SDS011;48134;53.586;10.610;2022-08-19T14:14:09;19.80;;;12.32;;
62149;SDS011;48134;53.586;10.610;2022-08-19T14:16:42;20.35;;;12.88;;
62149;SDS011;48134;53.586;10.610;2022-08-19T14:19:15;19.42;;;12.40;;
62149;SDS011;48134;53.586;10.610;2022-08-19T14:21:45;19.73;;;12.77;;
62149;SDS011;48134;53.586;10.610;2022-08-19T14:24:18;19.58;;;13.48;;
62149;SDS011;48134;53.586;10.610;2022-08-19T14:26:51;18.63;;;11.98;;
62149;SDS011;48134;53.586;10.610;2022-08-19T14:29:25;17.52;;;11.80;;
62149;SDS011;48134;53.586;10.610;2022-08-19T14:32:00;18.38;;;12.32;;
62149;SDS011;48134;53.586;10.610;2022-08-19T14:34:33;18.13;;;12.13;;